Time;durP1;ratioP1;P1;durP2;ratioP2;P2;SDS_P1;SDS_P2;PMS_P1;PMS_P2;Temp;Humidity;BMP_temperature;BMP_pressure;BME280_temperature;BME280_humidity;BME280_pressure;Samples;Min_cycle;Max_cycle;Signal;HPM_P1;HPM_P2
2023/08/29 00:01:14;;;;;;;4.35;1.42;;;;;;;;;;4987717;28;95122;-79
2023/08/29 00:03:41;;;;;;;2.45;0.98;;;;;;;;;;4989546;28;94982;-79
2023/08/29 00:06:07;;;;;;;1.42;1.00;;;;;;;;;;4989453;28;93754;-79
2023/08/29 00:08:34;;;;;;;2.70;1.00;;;;;;;;;;4989437;28;92406;-79
2023/08/29 00:11:02;;;;;;;3.53;1.17;;;;;;;;;;4989468;28;92813;-79
2023/08/29 00:13:29;;;;;;;3.08;1.30;;;;;;;;;;4988501;28;95131;-79
2023/08/29 00:15:56;;;;;;;6.55;1.10;;;;;;;;;;4991193;28;93049;-79
2023/08/29 00:18:23;;;;;;;3.58;1.13;;;;;;;;;;4989430;28;92551;-79
2023/08/29 00:20:50;;;;;;;3.03;1.00;;;;;;;;;;4989221;28;92877;-79
2023/08/29 00:23:17;;;;;;;1.58;0.90;;;;;;;;;;4989207;28;93687;-78
2023/08/29 00:25:43;;;;;;;2.50;0.95;;;;;;;;;;4987395;28;96134;-78
2023/08/29 00:28:11;;;;;;;2.83;1.10;;;;;;;;;;4989237;28;92759;-78
2023/08/29 00:30:39;;;;;;;1.52;0.88;;;;;;;;;;4989362;28;92754;-79
2023/08/29 00:33:10;;;;;;;7.25;1.30;;;;;;;;;;4970733;28;96666;-79
2023/08/29 00:35:38;;;;;;;7.32;1.25;;;;;;;;;;4971489;28;92724;-79
2023/08/29 00:38:04;;;;;;;3.70;1.10;;;;;;;;;;4985143;28;92668;-79
2023/08/29 00:40:32;;;;;;;;;;;;;;;;;;4990071;28;92561;-79
2023/08/29 00:42:59;;;;;;;1.17;0.90;;;;;;;;;;4994189;28;101058;-79
2023/08/29 00:45:27;;;;;;;1.60;0.90;;;;;;;;;;4971978;28;93139;-79
2023/08/29 00:47:54;;;;;;;3.17;1.00;;;;;;;;;;4959529;28;92576;-79
2023/08/29 00:50:22;;;;;;;2.90;1.10;;;;;;;;;;4969124;28;95932;-78
2023/08/29 00:52:48;;;;;;;2.10;1.10;;;;;;;;;;4988787;28;93108;-78
2023/08/29 00:55:15;;;;;;;2.03;1.10;;;;;;;;;;4988461;28;92465;-78
2023/08/29 00:57:42;;;;;;;2.13;1.05;;;;;;;;;;4970784;28;93980;-78
2023/08/29 01:00:09;;;;;;;3.17;1.10;;;;;;;;;;4991975;28;93108;-80
2023/08/29 01:02:35;;;;;;;6.38;1.10;;;;;;;;;;4988079;28;92429;-78
2023/08/29 01:05:03;;;;;;;4.57;1.27;;;;;;;;;;4988967;28;93198;-78
2023/08/29 01:07:30;;;;;;;3.25;1.10;;;;;;;;;;4993071;28;92148;-78
2023/08/29 01:09:58;;;;;;;2.60;1.20;;;;;;;;;;4974321;28;95804;-79
2023/08/29 01:12:34;;;;;;;4.00;1.25;;;;;;;;;;4992283;28;93239;-78
2023/08/29 01:15:09;;;;;;;3.13;1.00;;;;;;;;;;4971630;28;95229;-78
2023/08/29 01:17:52;;;;;;;3.45;1.10;;;;;;;;;;4974183;28;98119;-78
2023/08/29 01:20:19;;;;;;;2.47;1.00;;;;;;;;;;4992248;28;93289;-78
2023/08/29 01:22:45;;;;;;;3.80;1.13;;;;;;;;;;4995127;28;92701;-78
2023/08/29 01:25:19;;;;;;;2.60;1.10;;;;;;;;;;4992078;28;93064;-78
2023/08/29 01:27:47;;;;;;;2.58;1.10;;;;;;;;;;4977118;28;92491;-78
2023/08/29 01:30:14;;;;;;;3.33;1.10;;;;;;;;;;4992391;28;92640;-78
2023/08/29 01:32:41;;;;;;;2.50;1.02;;;;;;;;;;4992139;28;93803;-78
2023/08/29 01:35:10;;;;;;;2.17;1.00;;;;;;;;;;4973476;28;92725;-78
2023/08/29 01:37:37;;;;;;;2.63;1.10;;;;;;;;;;4991620;28;92865;-78
2023/08/29 01:40:04;;;;;;;2.28;1.00;;;;;;;;;;4971488;28;96653;-78
2023/08/29 01:42:31;;;;;;;3.45;0.90;;;;;;;;;;4991939;28;92764;-78
2023/08/29 01:44:57;;;;;;;1.88;1.00;;;;;;;;;;4976107;28;94668;-78
2023/08/29 01:47:24;;;;;;;2.80;1.05;;;;;;;;;;4991675;28;92913;-78
2023/08/29 01:49:51;;;;;;;4.07;1.10;;;;;;;;;;4991636;28;92790;-78
2023/08/29 01:52:18;;;;;;;1.45;0.82;;;;;;;;;;4991697;28;92904;-79
2023/08/29 01:54:45;;;;;;;;;;;;;;;;;;4991979;28;92708;-79
2023/08/29 01:57:13;;;;;;;1.70;0.90;;;;;;;;;;4993388;28;104917;-79
2023/08/29 01:59:41;;;;;;;5.82;1.10;;;;;;;;;;4973276;28;95389;-79
2023/08/29 02:02:07;;;;;;;2.72;1.10;;;;;;;;;;4973025;28;93034;-79
2023/08/29 02:04:34;;;;;;;4.15;1.10;;;;;;;;;;4990494;28;95212;-79
2023/08/29 02:07:01;;;;;;;2.55;1.00;;;;;;;;;;4975842;28;95735;-80
2023/08/29 02:09:28;;;;;;;2.65;1.05;;;;;;;;;;4991422;28;92608;-80
2023/08/29 02:11:55;;;;;;;3.08;1.10;;;;;;;;;;4991543;28;93585;-80
2023/08/29 02:14:23;;;;;;;2.60;0.90;;;;;;;;;;4973053;28;92531;-80
2023/08/29 02:16:50;;;;;;;1.73;0.80;;;;;;;;;;4990957;28;93042;-80
2023/08/29 02:19:17;;;;;;;1.90;0.95;;;;;;;;;;4956798;28;95401;-80
2023/08/29 02:21:44;;;;;;;3.13;1.00;;;;;;;;;;4973161;28;91811;-80
2023/08/29 02:24:10;;;;;;;2.63;1.05;;;;;;;;;;4991108;28;93266;-80
2023/08/29 02:26:37;;;;;;;2.00;0.90;;;;;;;;;;4993868;28;93130;-80
2023/08/29 02:29:03;;;;;;;1.65;0.90;;;;;;;;;;4971151;28;95391;-80
2023/08/29 02:31:30;;;;;;;2.35;0.90;;;;;;;;;;4990292;28;95654;-80
2023/08/29 02:33:56;;;;;;;2.00;1.02;;;;;;;;;;4990979;28;92459;-80
2023/08/29 02:36:25;;;;;;;3.50;1.00;;;;;;;;;;4972310;28;95681;-80
2023/08/29 02:38:53;;;;;;;2.15;0.98;;;;;;;;;;4990504;28;93329;-80
2023/08/29 02:41:19;;;;;;;2.60;0.93;;;;;;;;;;4990633;28;92448;-80
2023/08/29 02:43:46;;;;;;;1.98;0.80;;;;;;;;;;4990837;28;93356;-80
2023/08/29 02:46:14;;;;;;;3.40;1.20;;;;;;;;;;4972399;28;93751;-80
2023/08/29 02:48:40;;;;;;;5.70;1.10;;;;;;;;;;4994065;28;92931;-80
2023/08/29 02:51:07;;;;;;;4.82;1.05;;;;;;;;;;4990542;28;93139;-80
2023/08/29 02:53:33;;;;;;;5.60;1.20;;;;;;;;;;4970976;28;95206;-80
2023/08/29 02:56:00;;;;;;;2.90;0.95;;;;;;;;;;4990314;28;95635;-79
2023/08/29 02:58:27;;;;;;;6.13;1.02;;;;;;;;;;4990386;28;93493;-79
2023/08/29 03:00:56;;;;;;;8.95;1.40;;;;;;;;;;4989968;28;92763;-78
2023/08/29 03:03:26;;;;;;;4.43;1.10;;;;;;;;;;4990059;28;92979;-79
2023/08/29 03:05:57;;;;;;;6.18;1.10;;;;;;;;;;4990240;28;93401;-79
2023/08/29 03:08:24;;;;;;;4.05;1.10;;;;;;;;;;4971914;28;92496;-79
2023/08/29 03:10:52;;;;;;;1.90;0.90;;;;;;;;;;4958731;28;95674;-78
2023/08/29 03:13:18;;;;;;;2.35;1.00;;;;;;;;;;4972091;28;92613;-79
2023/08/29 03:15:46;;;;;;;2.53;1.00;;;;;;;;;;4971078;28;95713;-80
2023/08/29 03:18:13;;;;;;;5.10;1.20;;;;;;;;;;4953816;28;98021;-79
2023/08/29 03:20:40;;;;;;;2.33;1.00;;;;;;;;;;4971556;28;92724;-79
2023/08/29 03:23:09;;;;;;;2.45;1.02;;;;;;;;;;4971673;28;95199;-79
2023/08/29 03:25:36;;;;;;;2.97;1.00;;;;;;;;;;4989794;28;93025;-79
2023/08/29 03:28:03;;;;;;;3.53;1.10;;;;;;;;;;4971582;28;92965;-78
2023/08/29 03:30:30;;;;;;;;;;;;;;;;;;4971449;28;93879;-78
2023/08/29 03:32:56;;;;;;;1.73;1.00;;;;;;;;;;4994066;28;107063;-79
2023/08/29 03:35:23;;;;;;;4.97;1.15;;;;;;;;;;4972739;28;93751;-79
2023/08/29 03:37:50;;;;;;;4.15;1.05;;;;;;;;;;4990868;28;93685;-79
2023/08/29 03:40:17;;;;;;;2.75;1.00;;;;;;;;;;4992687;28;92384;-79
2023/08/29 03:42:44;;;;;;;1.70;0.93;;;;;;;;;;4973723;28;95034;-79
2023/08/29 03:45:14;;;;;;;1.55;0.80;;;;;;;;;;4978178;28;95583;-79
2023/08/29 03:47:41;;;;;;;7.10;1.15;;;;;;;;;;4994598;28;92432;-80
2023/08/29 03:50:07;;;;;;;3.65;0.80;;;;;;;;;;4977849;28;94078;-80
2023/08/29 03:52:34;;;;;;;3.22;1.10;;;;;;;;;;4980633;28;94898;-79
2023/08/29 03:55:01;;;;;;;3.33;0.80;;;;;;;;;;4981780;28;92690;-79
2023/08/29 03:57:27;;;;;;;2.10;0.80;;;;;;;;;;4982928;28;95972;-79
2023/08/29 03:59:54;;;;;;;3.13;0.90;;;;;;;;;;5000341;28;91836;-79
2023/08/29 04:02:21;;;;;;;2.05;0.80;;;;;;;;;;4982209;28;93877;-79
2023/08/29 04:04:50;;;;;;;2.33;0.90;;;;;;;;;;4979516;28;95916;-79
2023/08/29 04:07:17;;;;;;;1.60;0.80;;;;;;;;;;4976088;28;95083;-80
2023/08/29 04:09:44;;;;;;;10.43;1.00;;;;;;;;;;4960585;28;95423;-80
2023/08/29 04:12:10;;;;;;;1.05;0.70;;;;;;;;;;4978729;28;94687;-80
2023/08/29 04:14:37;;;;;;;2.88;0.80;;;;;;;;;;4978993;28;92792;-80
2023/08/29 04:17:04;;;;;;;2.28;0.70;;;;;;;;;;4966758;28;95850;-81
2023/08/29 04:19:31;;;;;;;1.25;0.73;;;;;;;;;;4993058;28;92460;-80
2023/08/29 04:21:57;;;;;;;1.88;0.85;;;;;;;;;;4974954;28;95519;-81
2023/08/29 04:24:24;;;;;;;1.27;0.80;;;;;;;;;;4993334;28;91673;-80
2023/08/29 04:26:50;;;;;;;2.97;0.73;;;;;;;;;;4959398;28;92466;-82
2023/08/29 04:29:17;;;;;;;2.70;0.80;;;;;;;;;;4991130;28;94388;-79
2023/08/29 04:31:44;;;;;;;1.20;0.90;;;;;;;;;;4953203;28;97066;-80
2023/08/29 04:34:10;;;;;;;3.90;1.02;;;;;;;;;;4972232;28;92728;-80
2023/08/29 04:36:37;;;;;;;3.03;1.08;;;;;;;;;;4958940;28;95657;-81
2023/08/29 04:39:04;;;;;;;2.10;0.90;;;;;;;;;;4972554;28;92669;-81
2023/08/29 04:41:30;;;;;;;2.10;0.90;;;;;;;;;;4974467;28;95915;-80
2023/08/29 04:43:57;;;;;;;3.85;1.10;;;;;;;;;;4993011;28;93554;-81
2023/08/29 04:46:25;;;;;;;2.92;1.10;;;;;;;;;;4992056;28;92454;-81
2023/08/29 04:48:51;;;;;;;2.80;1.20;;;;;;;;;;4975028;28;92953;-80
2023/08/29 04:51:18;;;;;;;1.60;1.10;;;;;;;;;;4992423;28;92982;-79
2023/08/29 04:53:46;;;;;;;3.95;1.55;;;;;;;;;;4974530;28;92721;-79
2023/08/29 04:56:13;;;;;;;3.30;1.00;;;;;;;;;;4956315;28;95539;-79
2023/08/29 04:58:40;;;;;;;2.83;1.10;;;;;;;;;;4994923;28;93072;-79
2023/08/29 05:01:07;;;;;;;4.05;1.20;;;;;;;;;;4991957;28;93310;-79
2023/08/29 05:03:34;;;;;;;2.03;1.13;;;;;;;;;;4957457;28;94591;-78
2023/08/29 05:06:00;;;;;;;2.45;1.10;;;;;;;;;;4972914;28;92950;-78
2023/08/29 05:08:28;;;;;;;2.90;1.20;;;;;;;;;;4973821;28;95341;-78
2023/08/29 05:10:54;;;;;;;2.92;1.20;;;;;;;;;;4991096;28;94239;-79
2023/08/29 05:13:21;;;;;;;2.17;1.10;;;;;;;;;;4974066;28;91877;-79
2023/08/29 05:15:48;;;;;;;3.05;1.10;;;;;;;;;;4957169;28;94452;-78
2023/08/29 05:18:15;;;;;;;3.08;1.17;;;;;;;;;;4973727;28;95318;-82
2023/08/29 05:20:42;;;;;;;2.35;1.00;;;;;;;;;;4993085;28;94876;-83
2023/08/29 05:23:09;;;;;;;3.00;1.00;;;;;;;;;;4992104;28;92996;-83
2023/08/29 05:25:36;;;;;;;4.13;1.00;;;;;;;;;;4975052;28;92409;-82
2023/08/29 05:28:03;;;;;;;2.00;1.00;;;;;;;;;;4973839;28;92984;-82
2023/08/29 05:30:30;;;;;;;;;;;;;;;;;;4992268;28;93103;-83
2023/08/29 05:32:57;;;;;;;4.20;1.30;;;;;;;;;;4993621;28;92946;-83
2023/08/29 05:35:23;;;;;;;5.55;1.30;;;;;;;;;;4991893;28;93406;-83
2023/08/29 05:37:50;;;;;;;3.55;1.25;;;;;;;;;;4974103;28;94313;-83
2023/08/29 05:40:17;;;;;;;3.85;1.20;;;;;;;;;;4991920;28;92527;-83
2023/08/29 05:42:43;;;;;;;3.45;1.10;;;;;;;;;;4995218;28;92978;-83
2023/08/29 05:45:10;;;;;;;4.75;1.35;;;;;;;;;;4989730;28;94923;-83
2023/08/29 05:47:36;;;;;;;3.63;1.25;;;;;;;;;;4991550;28;94790;-83
2023/08/29 05:50:04;;;;;;;3.95;1.17;;;;;;;;;;4991617;28;93078;-83
2023/08/29 05:52:31;;;;;;;2.67;1.10;;;;;;;;;;4990463;28;92529;-84
2023/08/29 05:54:57;;;;;;;2.78;1.25;;;;;;;;;;4991614;28;92794;-84
2023/08/29 05:57:25;;;;;;;2.72;1.20;;;;;;;;;;4991388;28;93579;-84
2023/08/29 05:59:53;;;;;;;7.28;1.40;;;;;;;;;;4991540;28;93801;-84
2023/08/29 06:02:20;;;;;;;5.88;1.30;;;;;;;;;;4985095;28;92684;-84
2023/08/29 06:04:47;;;;;;;4.05;1.30;;;;;;;;;;4976707;28;96431;-83
2023/08/29 06:07:14;;;;;;;3.40;1.17;;;;;;;;;;4995822;28;94601;-84
2023/08/29 06:09:41;;;;;;;2.13;1.02;;;;;;;;;;4992714;28;95414;-84
2023/08/29 06:12:09;;;;;;;2.53;1.10;;;;;;;;;;4979688;28;92613;-85
2023/08/29 06:14:36;;;;;;;5.47;1.40;;;;;;;;;;4992056;28;92459;-85
2023/08/29 06:17:02;;;;;;;3.67;1.40;;;;;;;;;;4992455;28;92507;-83
2023/08/29 06:19:29;;;;;;;3.08;1.10;;;;;;;;;;4992245;28;92727;-82
2023/08/29 06:21:55;;;;;;;6.95;1.30;;;;;;;;;;4972947;28;92672;-83
2023/08/29 06:24:22;;;;;;;3.58;1.40;;;;;;;;;;4992602;28;93898;-83
2023/08/29 06:26:49;;;;;;;4.38;1.45;;;;;;;;;;4977177;28;91877;-83
2023/08/29 06:29:16;;;;;;;2.85;1.20;;;;;;;;;;4994571;28;92390;-82
2023/08/29 06:31:43;;;;;;;4.82;1.73;;;;;;;;;;4996494;28;92896;-81
2023/08/29 06:34:10;;;;;;;2.15;1.20;;;;;;;;;;4959214;28;96606;-82
2023/08/29 06:36:37;;;;;;;4.43;1.42;;;;;;;;;;4978215;28;93011;-82
2023/08/29 06:39:04;;;;;;;5.65;1.48;;;;;;;;;;4970515;28;92783;-82
2023/08/29 06:41:31;;;;;;;3.88;1.40;;;;;;;;;;4983231;28;96209;-83
2023/08/29 06:43:57;;;;;;;4.90;1.30;;;;;;;;;;4978908;28;94335;-82
2023/08/29 06:46:24;;;;;;;2.97;1.30;;;;;;;;;;4996190;28;92603;-82
2023/08/29 06:48:51;;;;;;;3.72;1.50;;;;;;;;;;4970770;28;94397;-83
2023/08/29 06:51:17;;;;;;;3.80;1.52;;;;;;;;;;4982029;28;92212;-82
2023/08/29 06:53:44;;;;;;;2.25;1.10;;;;;;;;;;4990727;28;92895;-82
2023/08/29 06:56:11;;;;;;;2.90;1.23;;;;;;;;;;4997252;28;93488;-82
2023/08/29 06:58:38;;;;;;;3.20;1.20;;;;;;;;;;4974849;28;95359;-82
2023/08/29 07:01:04;;;;;;;;;;;;;;;;;;4967195;28;98122;-82
2023/08/29 07:03:31;;;;;;;4.93;1.75;;;;;;;;;;4990993;28;103727;-82
2023/08/29 07:05:58;;;;;;;6.15;1.50;;;;;;;;;;4989696;28;92776;-80
2023/08/29 07:08:24;;;;;;;5.18;1.42;;;;;;;;;;5001218;28;92726;-81
2023/08/29 07:10:51;;;;;;;7.70;1.40;;;;;;;;;;4980261;28;92502;-81
2023/08/29 07:13:19;;;;;;;5.78;1.20;;;;;;;;;;4968698;28;93049;-81
2023/08/29 07:15:45;;;;;;;5.50;1.42;;;;;;;;;;5004257;28;93276;-81
2023/08/29 07:18:13;;;;;;;4.25;1.20;;;;;;;;;;4968340;28;92855;-81
2023/08/29 07:20:42;;;;;;;2.53;1.05;;;;;;;;;;4973269;28;92778;-81
2023/08/29 07:23:08;;;;;;;3.63;1.13;;;;;;;;;;4973909;28;99554;-81
2023/08/29 07:25:45;;;;;;;4.72;1.33;;;;;;;;;;4997444;28;92527;-81
2023/08/29 07:28:15;;;;;;;4.40;1.20;;;;;;;;;;4973579;28;96083;-82
2023/08/29 07:30:45;;;;;;;4.80;1.15;;;;;;;;;;5000279;28;93543;-82
2023/08/29 07:33:13;;;;;;;3.42;1.00;;;;;;;;;;4979885;28;95572;-81
2023/08/29 07:35:41;;;;;;;2.88;1.00;;;;;;;;;;4978038;28;96205;-82
2023/08/29 07:38:07;;;;;;;2.47;1.00;;;;;;;;;;4991456;28;92856;-82
2023/08/29 07:40:35;;;;;;;2.63;1.05;;;;;;;;;;4993111;28;92850;-82
2023/08/29 07:43:03;;;;;;;5.47;1.10;;;;;;;;;;4973441;28;92937;-82
2023/08/29 07:45:30;;;;;;;3.30;0.93;;;;;;;;;;4997306;28;92525;-81
2023/08/29 07:47:57;;;;;;;3.05;1.00;;;;;;;;;;4999109;28;95534;-82
2023/08/29 07:50:24;;;;;;;4.95;1.13;;;;;;;;;;5009305;28;93104;-82
2023/08/29 07:52:51;;;;;;;2.25;1.00;;;;;;;;;;5014283;28;93150;-81
2023/08/29 07:55:18;;;;;;;2.92;1.20;;;;;;;;;;5002805;28;92431;-81
2023/08/29 07:57:44;;;;;;;3.28;1.10;;;;;;;;;;5004627;28;92799;-81
2023/08/29 08:00:11;;;;;;;2.35;1.10;;;;;;;;;;4996347;28;92387;-82
2023/08/29 08:02:38;;;;;;;3.53;1.02;;;;;;;;;;4981306;28;92951;-82
2023/08/29 08:05:06;;;;;;;2.20;0.90;;;;;;;;;;4969295;28;91698;-80
2023/08/29 08:07:33;;;;;;;1.30;0.80;;;;;;;;;;4995873;28;92522;-81
2023/08/29 08:09:59;;;;;;;1.92;1.00;;;;;;;;;;4991579;28;93068;-81
2023/08/29 08:12:28;;;;;;;2.78;0.90;;;;;;;;;;5007273;28;94850;-81
2023/08/29 08:14:55;;;;;;;2.80;1.17;;;;;;;;;;4993424;28;97249;-82
2023/08/29 08:17:22;;;;;;;2.30;1.08;;;;;;;;;;4992518;28;92525;-82
2023/08/29 08:19:48;;;;;;;2.05;1.10;;;;;;;;;;4981781;28;92957;-82
2023/08/29 08:22:17;;;;;;;3.65;1.15;;;;;;;;;;4971666;28;92984;-81
2023/08/29 08:24:44;;;;;;;2.45;1.15;;;;;;;;;;4987609;28;92549;-81
2023/08/29 08:27:10;;;;;;;2.55;1.00;;;;;;;;;;4982697;28;92855;-84
2023/08/29 08:29:39;;;;;;;2.92;1.00;;;;;;;;;;4982438;28;93111;-81
2023/08/29 08:32:06;;;;;;;3.30;1.20;;;;;;;;;;4994740;28;94921;-81
2023/08/29 08:34:33;;;;;;;3.88;1.20;;;;;;;;;;4980339;28;92999;-81
2023/08/29 08:36:59;;;;;;;2.28;1.05;;;;;;;;;;4970139;28;94852;-81
2023/08/29 08:39:26;;;;;;;2.97;1.00;;;;;;;;;;4990861;28;95184;-83
2023/08/29 08:41:53;;;;;;;1.50;0.90;;;;;;;;;;4990919;28;93364;-80
2023/08/29 08:44:21;;;;;;;1.95;1.00;;;;;;;;;;4976582;28;92533;-81
2023/08/29 08:46:47;;;;;;;;;;;;;;;;;;4976687;28;92732;-83
2023/08/29 08:49:14;;;;;;;3.03;1.10;;;;;;;;;;4994528;28;105883;-81
2023/08/29 08:51:40;;;;;;;5.38;1.38;;;;;;;;;;5001713;28;92419;-81
2023/08/29 08:54:07;;;;;;;4.15;1.20;;;;;;;;;;4972830;28;95164;-81
2023/08/29 08:56:34;;;;;;;3.55;1.25;;;;;;;;;;4980647;28;93745;-81
2023/08/29 08:59:00;;;;;;;1.88;1.00;;;;;;;;;;4956083;28;96058;-80
2023/08/29 09:01:28;;;;;;;3.95;1.20;;;;;;;;;;4979931;28;97440;-81
2023/08/29 09:03:55;;;;;;;3.00;1.10;;;;;;;;;;4970083;28;93024;-81
2023/08/29 09:06:22;;;;;;;3.53;1.27;;;;;;;;;;4989610;28;94654;-84
2023/08/29 09:08:49;;;;;;;3.38;1.10;;;;;;;;;;4989073;28;93051;-83
2023/08/29 09:11:18;;;;;;;4.15;1.20;;;;;;;;;;4991761;28;92483;-83
2023/08/29 09:13:46;;;;;;;4.90;1.20;;;;;;;;;;4988691;28;93413;-82
2023/08/29 09:16:14;;;;;;;4.00;1.20;;;;;;;;;;4975933;28;93358;-81
2023/08/29 09:18:43;;;;;;;2.38;1.05;;;;;;;;;;4992598;28;91791;-83
2023/08/29 09:21:16;;;;;;;3.80;1.17;;;;;;;;;;4992650;28;95812;-81
2023/08/29 09:23:44;;;;;;;2.30;1.00;;;;;;;;;;4982883;28;92702;-84
2023/08/29 09:26:11;;;;;;;3.70;1.10;;;;;;;;;;4981060;28;95192;-84
2023/08/29 09:28:38;;;;;;;;;;;;;;;;;;4991657;28;93691;-83
2023/08/29 09:31:05;;;;;;;4.65;1.20;;;;;;;;;;4978866;28;99362;-82
2023/08/29 09:33:33;;;;;;;4.03;1.35;;;;;;;;;;4972171;28;94548;-81
2023/08/29 09:35:59;;;;;;;3.90;1.20;;;;;;;;;;4994883;28;93527;-82
2023/08/29 09:38:27;;;;;;;4.35;1.10;;;;;;;;;;4973095;28;92568;-83
2023/08/29 09:40:55;;;;;;;3.75;1.00;;;;;;;;;;4974495;28;93165;-82
2023/08/29 09:43:21;;;;;;;5.97;1.30;;;;;;;;;;4963764;28;91876;-82
2023/08/29 09:45:50;;;;;;;2.92;0.98;;;;;;;;;;4986845;28;92839;-82
2023/08/29 09:48:17;;;;;;;4.05;1.10;;;;;;;;;;4989646;28;94406;-82
2023/08/29 09:50:45;;;;;;;2.33;1.08;;;;;;;;;;4980726;28;95401;-82
2023/08/29 09:53:16;;;;;;;2.47;1.00;;;;;;;;;;4990698;28;95219;-82
2023/08/29 09:55:55;;;;;;;2.67;1.20;;;;;;;;;;5001853;28;93358;-83
2023/08/29 09:58:24;;;;;;;2.38;1.00;;;;;;;;;;4990596;28;92724;-82
2023/08/29 10:00:51;;;;;;;3.58;1.10;;;;;;;;;;4989598;28;92768;-83
2023/08/29 10:03:19;;;;;;;3.55;1.00;;;;;;;;;;4958422;28;95625;-83
2023/08/29 10:05:45;;;;;;;;;;;;;;;;;;5001086;28;93316;-83
2023/08/29 10:08:18;;;;;;;2.92;1.17;;;;;;;;;;4973986;28;110939;-83
2023/08/29 10:10:44;;;;;;;4.13;1.20;;;;;;;;;;4998448;28;92977;-83
2023/08/29 10:13:11;;;;;;;2.90;1.10;;;;;;;;;;4976956;28;92953;-83
2023/08/29 10:15:39;;;;;;;2.88;1.10;;;;;;;;;;4995521;28;95688;-82
2023/08/29 10:18:07;;;;;;;2.20;1.10;;;;;;;;;;4990429;28;92666;-82
2023/08/29 10:20:35;;;;;;;2.65;1.00;;;;;;;;;;4992860;28;93506;-82
2023/08/29 10:23:03;;;;;;;2.75;1.17;;;;;;;;;;4990405;28;95451;-82
2023/08/29 10:25:30;;;;;;;2.45;1.02;;;;;;;;;;5006798;28;92659;-82
2023/08/29 10:27:57;;;;;;;3.28;1.15;;;;;;;;;;4982993;28;93842;-82
2023/08/29 10:30:25;;;;;;;2.67;1.10;;;;;;;;;;4985008;28;92967;-83
2023/08/29 10:32:53;;;;;;;1.77;1.00;;;;;;;;;;4977798;28;92782;-83
2023/08/29 10:35:22;;;;;;;4.05;1.05;;;;;;;;;;4994417;28;93964;-83
2023/08/29 10:37:50;;;;;;;2.42;0.90;;;;;;;;;;4990189;28;92568;-84
2023/08/29 10:40:17;;;;;;;2.30;1.00;;;;;;;;;;4995529;28;95431;-83
2023/08/29 10:42:51;;;;;;;3.30;1.10;;;;;;;;;;4990950;28;93199;-82
2023/08/29 10:45:41;;;;;;;1.42;1.00;;;;;;;;;;4982938;28;92493;-83
2023/08/29 10:48:07;;;;;;;2.55;1.00;;;;;;;;;;4981872;28;93265;-83
2023/08/29 10:50:37;;;;;;;2.10;0.93;;;;;;;;;;4991134;28;92538;-82
2023/08/29 10:53:04;;;;;;;2.15;1.00;;;;;;;;;;4993797;28;93081;-82
2023/08/29 10:55:34;;;;;;;2.55;0.95;;;;;;;;;;4990696;28;93233;-82
2023/08/29 10:58:20;;;;;;;3.38;1.00;;;;;;;;;;4984855;28;92369;-83
2023/08/29 11:00:54;;;;;;;1.98;1.10;;;;;;;;;;4992869;28;92862;-83
2023/08/29 11:03:39;;;;;;;1.42;0.90;;;;;;;;;;4990492;28;92964;-83
2023/08/29 11:06:08;;;;;;;1.90;0.90;;;;;;;;;;4969199;28;95012;-83
2023/08/29 11:08:35;;;;;;;1.75;1.00;;;;;;;;;;4975818;28;96062;-83
2023/08/29 11:11:17;;;;;;;2.38;1.00;;;;;;;;;;4995205;28;93262;-83
2023/08/29 11:13:53;;;;;;;2.28;1.00;;;;;;;;;;4994289;28;92732;-83
2023/08/29 11:16:19;;;;;;;2.03;0.95;;;;;;;;;;4993522;28;93201;-84
2023/08/29 11:18:47;;;;;;;2.47;0.90;;;;;;;;;;4975590;28;92521;-83
2023/08/29 11:21:15;;;;;;;2.78;1.00;;;;;;;;;;4998801;28;92984;-83
2023/08/29 11:23:44;;;;;;;2.92;0.90;;;;;;;;;;4996407;28;92848;-83
2023/08/29 11:26:11;;;;;;;2.25;0.95;;;;;;;;;;5002184;28;92744;-83
2023/08/29 11:28:39;;;;;;;2.63;1.00;;;;;;;;;;4988788;28;93327;-83
2023/08/29 11:31:06;;;;;;;2.75;1.00;;;;;;;;;;5010968;28;95934;-83
2023/08/29 11:33:33;;;;;;;2.33;1.00;;;;;;;;;;5006090;28;94446;-83
2023/08/29 11:36:01;;;;;;;3.78;0.98;;;;;;;;;;5016471;28;93154;-83
2023/08/29 11:38:29;;;;;;;1.80;0.98;;;;;;;;;;4994002;28;92460;-83
2023/08/29 11:40:56;;;;;;;2.47;1.02;;;;;;;;;;5008266;28;92608;-83
2023/08/29 11:43:43;;;;;;;2.92;1.15;;;;;;;;;;4993693;28;92431;-83
2023/08/29 11:46:33;;;;;;;2.40;1.00;;;;;;;;;;5010407;28;92732;-83
2023/08/29 11:49:00;;;;;;;1.88;1.05;;;;;;;;;;5011343;28;93619;-82
2023/08/29 11:51:26;;;;;;;2.08;1.00;;;;;;;;;;5017161;28;92269;-82
2023/08/29 11:53:53;;;;;;;1.83;1.00;;;;;;;;;;5016611;28;92112;-83
2023/08/29 11:56:20;;;;;;;1.20;0.90;;;;;;;;;;5011933;28;94454;-82
2023/08/29 11:58:49;;;;;;;1.45;0.90;;;;;;;;;;5013085;28;92155;-83
2023/08/29 12:01:16;;;;;;;1.80;1.00;;;;;;;;;;5024682;28;93446;-83
2023/08/29 12:03:43;;;;;;;1.42;1.00;;;;;;;;;;5012997;28;92482;-84
2023/08/29 12:06:10;;;;;;;2.63;1.00;;;;;;;;;;5007610;28;92971;-83
2023/08/29 12:08:39;;;;;;;2.00;1.00;;;;;;;;;;5013371;28;92477;-84
2023/08/29 12:11:06;;;;;;;3.92;1.15;;;;;;;;;;5012245;28;93197;-83
2023/08/29 12:13:34;;;;;;;1.60;0.90;;;;;;;;;;4973302;28;91745;-83
2023/08/29 12:16:02;;;;;;;1.90;1.00;;;;;;;;;;4993304;28;92847;-83
2023/08/29 12:18:29;;;;;;;2.83;1.15;;;;;;;;;;4972213;28;92702;-82
2023/08/29 12:21:18;;;;;;;2.10;1.10;;;;;;;;;;4990420;28;94829;-83
2023/08/29 12:23:45;;;;;;;2.65;1.30;;;;;;;;;;4985427;28;93601;-83
2023/08/29 12:26:12;;;;;;;1.70;1.10;;;;;;;;;;4999907;28;92465;-83
2023/08/29 12:28:38;;;;;;;;;;;;;;;;;;4971612;28;96044;-84
2023/08/29 12:31:06;;;;;;;1.17;0.95;;;;;;;;;;4990983;28;106874;-84
2023/08/29 12:33:33;;;;;;;2.47;1.10;;;;;;;;;;4989839;28;92483;-84
2023/08/29 12:35:59;;;;;;;2.88;1.02;;;;;;;;;;4982686;28;93295;-83
2023/08/29 12:38:30;;;;;;;1.80;1.00;;;;;;;;;;4955096;28;92462;-84
2023/08/29 12:40:57;;;;;;;3.03;1.20;;;;;;;;;;4994849;28;92525;-84
2023/08/29 12:43:24;;;;;;;2.85;1.00;;;;;;;;;;4981695;28;93089;-83
2023/08/29 12:45:51;;;;;;;3.13;1.10;;;;;;;;;;4995985;28;94971;-84
2023/08/29 12:48:26;;;;;;;2.03;0.93;;;;;;;;;;4975391;28;95039;-85
2023/08/29 12:50:55;;;;;;;1.83;1.10;;;;;;;;;;4988455;28;93421;-83
2023/08/29 12:53:21;;;;;;;1.63;1.00;;;;;;;;;;4983257;28;92494;-84
2023/08/29 12:55:50;;;;;;;1.25;1.00;;;;;;;;;;4980075;28;92949;-84
2023/08/29 12:58:17;;;;;;;2.13;1.20;;;;;;;;;;4962601;28;93284;-84
2023/08/29 13:00:45;;;;;;;2.55;1.30;;;;;;;;;;4992283;28;92496;-84
2023/08/29 13:03:11;;;;;;;2.85;1.23;;;;;;;;;;4993850;28;92714;-84
2023/08/29 13:05:38;;;;;;;1.85;1.05;;;;;;;;;;4975190;28;92472;-84
2023/08/29 13:08:07;;;;;;;2.28;1.40;;;;;;;;;;4972531;28;92793;-84
2023/08/29 13:10:35;;;;;;;3.30;1.30;;;;;;;;;;4982646;28;95335;-84
2023/08/29 13:13:01;;;;;;;2.58;1.30;;;;;;;;;;5005793;28;92541;-84
2023/08/29 13:15:28;;;;;;;1.88;1.20;;;;;;;;;;4996709;28;93259;-83
2023/08/29 13:18:14;;;;;;;2.22;1.00;;;;;;;;;;4986787;28;92683;-85
2023/08/29 13:20:43;;;;;;;1.98;1.00;;;;;;;;;;4986167;28;92493;-85
2023/08/29 13:23:10;;;;;;;2.70;1.20;;;;;;;;;;4990956;28;93282;-85
2023/08/29 13:25:36;;;;;;;3.65;1.30;;;;;;;;;;4991610;28;92559;-84
2023/08/29 13:28:03;;;;;;;2.88;1.30;;;;;;;;;;4991978;28;92962;-85
2023/08/29 13:30:31;;;;;;;3.05;1.40;;;;;;;;;;4991358;28;93269;-84
2023/08/29 13:32:57;;;;;;;1.90;1.20;;;;;;;;;;4991583;28;92657;-84
2023/08/29 13:35:24;;;;;;;1.38;1.10;;;;;;;;;;4989991;28;95193;-85
2023/08/29 13:37:52;;;;;;;2.38;1.27;;;;;;;;;;4991325;28;94733;-84
2023/08/29 13:40:20;;;;;;;2.42;1.30;;;;;;;;;;4990229;28;92528;-84
2023/08/29 13:42:49;;;;;;;2.90;1.40;;;;;;;;;;4973873;28;92623;-83
2023/08/29 13:45:16;;;;;;;2.72;1.40;;;;;;;;;;4975827;28;92504;-83
2023/08/29 13:47:42;;;;;;;2.30;1.40;;;;;;;;;;4992635;28;93870;-82
2023/08/29 13:50:09;;;;;;;2.10;1.20;;;;;;;;;;4969062;28;93545;-84
2023/08/29 13:52:35;;;;;;;1.83;1.30;;;;;;;;;;4981736;28;91750;-83
2023/08/29 13:55:02;;;;;;;2.78;1.42;;;;;;;;;;4993447;28;92395;-83
2023/08/29 13:57:30;;;;;;;2.58;1.25;;;;;;;;;;5003119;28;94475;-83
2023/08/29 13:59:57;;;;;;;2.33;1.40;;;;;;;;;;4978081;28;95403;-84
2023/08/29 14:02:23;;;;;;;2.03;1.40;;;;;;;;;;4982248;28;95093;-83
2023/08/29 14:04:50;;;;;;;3.95;1.48;;;;;;;;;;4962851;28;93031;-83
2023/08/29 14:07:17;;;;;;;2.85;1.55;;;;;;;;;;4953488;28;95872;-84
2023/08/29 14:09:43;;;;;;;2.42;1.52;;;;;;;;;;4984506;28;93229;-83
2023/08/29 14:12:10;;;;;;;2.90;1.58;;;;;;;;;;4990747;28;92589;-83
2023/08/29 14:14:36;;;;;;;4.07;1.60;;;;;;;;;;4971345;28;96063;-83
2023/08/29 14:17:03;;;;;;;4.97;1.70;;;;;;;;;;4991345;28;91850;-83
2023/08/29 14:19:30;;;;;;;3.33;1.58;;;;;;;;;;4971597;28;92498;-83
2023/08/29 14:21:56;;;;;;;3.40;1.73;;;;;;;;;;4971988;28;93924;-83
2023/08/29 14:24:23;;;;;;;2.95;1.80;;;;;;;;;;4969815;28;95684;-83
2023/08/29 14:26:50;;;;;;;3.95;1.63;;;;;;;;;;4993631;28;92469;-83
2023/08/29 14:29:16;;;;;;;4.43;1.67;;;;;;;;;;4972839;28;93176;-83
2023/08/29 14:31:43;;;;;;;4.13;1.60;;;;;;;;;;4991500;28;92870;-84
2023/08/29 14:34:09;;;;;;;4.35;1.70;;;;;;;;;;4973062;28;93286;-83
2023/08/29 14:36:36;;;;;;;3.65;1.70;;;;;;;;;;4991129;28;93271;-82
2023/08/29 14:39:02;;;;;;;3.78;1.52;;;;;;;;;;4973081;28;92869;-83
2023/08/29 14:41:29;;;;;;;2.95;1.65;;;;;;;;;;4974189;28;94413;-83
2023/08/29 14:43:56;;;;;;;3.90;1.80;;;;;;;;;;4977423;28;93204;-83
2023/08/29 14:46:23;;;;;;;4.13;1.70;;;;;;;;;;4991312;28;92427;-83
2023/08/29 14:48:49;;;;;;;3.55;1.63;;;;;;;;;;4992482;28;94813;-83